KHFF/HFF METAR and TAF weather

Enter ICAO airport designator
Station Type Date Time Source
KHFF METAR 2021/03/06 04:56 UTC NOAA

KHFF 060456Z AUTO 00000KT 10SM OVC140 03/M02 A3017 RMK AO2 SLP234 T00321021 401331023 $


Station Type Date Time Source
KHFF Decoded METAR 2021/03/06 04:56 UTC NOAA

Mackall U. S. Army Airfield, NC, United States (KHFF) 35-02N 079-30W
Mar 05, 2021 - 11:56 PM EST / 2021.03.06 0456 UTC
Wind: Calm:0
Visibility: 10 mile(s):0
Sky conditions: overcast
Temperature: 37.8 F (3.2 C)
Dew Point: 28.2 F (-2.1 C)
Relative Humidity: 68%
Pressure (altimeter): 30.17 in. Hg (1021 hPa)
ob: KHFF 060456Z AUTO 00000KT 10SM OVC140 03/M02 A3017 RMK AO2 SLP234 T00321021 401331023
cycle: 5

Station Type Date Time Source
KHFF TAF UTC NOAA

Error!

Example: see airport list